createdAt,value
2023-01-02T00:01:45.760Z,101038.56
2023-01-02T00:04:23.257Z,101035.03
2023-01-02T00:06:59.245Z,101015.81
2023-01-02T00:09:35.613Z,101024.56
2023-01-02T00:12:05.333Z,101009.66
2023-01-02T00:14:41.626Z,101014.06
2023-01-02T00:17:10.630Z,101001.81
2023-01-02T00:19:40.831Z,101006.19
2023-01-02T00:22:18.097Z,100999.19
2023-01-02T00:27:38.373Z,100986.97
2023-01-02T00:30:15.205Z,100983.47
2023-01-02T00:32:45.181Z,100975.56
2023-01-02T00:35:20.304Z,100979.94
2023-01-02T00:37:55.560Z,100973.88
2023-01-02T00:40:24.059Z,100966.84
2023-01-02T00:43:01.193Z,100959.88
2023-01-02T00:45:34.462Z,100969.47
2023-01-02T00:48:04.087Z,100958.97
2023-01-02T00:50:45.903Z,100945.84
2023-01-02T00:56:08.756Z,100939.72
2023-01-02T00:58:38.073Z,100936.22
2023-01-02T01:01:26.941Z,100927.47
2023-01-02T01:03:56.236Z,100924.84
2023-01-02T01:06:29.660Z,100925.72
2023-01-02T01:09:10.195Z,100909.94
2023-01-02T01:11:46.474Z,100902.09
2023-01-02T01:14:15.388Z,100915.22
2023-01-02T01:16:48.957Z,100909.94
2023-01-02T01:19:26.682Z,100902.06
2023-01-02T01:22:15.290Z,100902.97
2023-01-02T01:24:48.180Z,100892.47
2023-01-02T01:27:18.533Z,100897.69
2023-01-02T01:29:48.826Z,100894.19
2023-01-02T01:32:17.982Z,100865.34
2023-01-02T01:34:53.344Z,100886.28
2023-01-02T01:37:24.699Z,100885.44
2023-01-02T01:39:56.518Z,100891.56
2023-01-02T01:42:25.907Z,100888.06
2023-01-02T01:44:56.903Z,100888.06
2023-01-02T01:47:42.434Z,100882.81
2023-01-02T01:50:14.909Z,100884.53
2023-01-02T01:52:50.966Z,100888.03
2023-01-02T01:55:24.421Z,100891.53
2023-01-02T01:57:59.236Z,100894.13
2023-01-02T02:00:28.909Z,100891.53
2023-01-02T02:05:56.926Z,100891.53
2023-01-02T02:08:51.040Z,100895.03
2023-01-02T02:14:05.042Z,100893.25
2023-01-02T02:16:42.449Z,100889.72
2023-01-02T02:20:04.373Z,100881.88
2023-01-02T02:23:05.393Z,100879.25
2023-01-02T02:26:09.048Z,100854.75
2023-01-02T02:29:41.825Z,100849.47
2023-01-02T02:32:36.296Z,100842.47
2023-01-02T02:35:16.360Z,100845.94
2023-01-02T02:38:08.829Z,100846.81
2023-01-02T02:41:00.058Z,100849.44
2023-01-02T02:43:49.304Z,100856.44
2023-01-02T02:46:34.712Z,100856.44
2023-01-02T02:49:11.507Z,100848.56
2023-01-02T02:57:30.832Z,100843.28
2023-01-02T03:00:01.955Z,100849.41
2023-01-02T03:02:34.403Z,100840.66
2023-01-02T03:05:12.578Z,100845.88
2023-01-02T03:07:58.636Z,100843.25
2023-01-02T03:13:41.317Z,100833.66
2023-01-02T03:16:19.480Z,100852.88
2023-01-02T03:19:19.142Z,100844.13
2023-01-02T03:22:12.715Z,100827.50
2023-01-02T03:24:45.845Z,100835.34
2023-01-02T03:27:36.280Z,100837.09
2023-01-02T03:30:12.490Z,100831.91
2023-01-02T03:32:47.239Z,100841.47
2023-01-02T03:35:37.394Z,100836.22
2023-01-02T03:38:34.897Z,100851.09
2023-01-02T03:41:18.977Z,100842.38
2023-01-02T03:43:56.711Z,100850.25
2023-01-02T03:46:50.482Z,100849.38
2023-01-02T03:49:25.253Z,100851.97
2023-01-02T03:51:53.938Z,100837.97
2023-01-02T03:54:35.563Z,100846.69
2023-01-02T03:57:17.782Z,100827.50
2023-01-02T03:59:59.579Z,100835.28
2023-01-02T04:02:46.110Z,100831.75
2023-01-02T04:05:28.548Z,100827.44
2023-01-02T04:08:02.541Z,100826.53
2023-01-02T04:10:57.948Z,100830.06
2023-01-02T04:13:34.604Z,100826.50
2023-01-02T04:16:05.690Z,100835.25
2023-01-02T04:18:46.365Z,100823.03
2023-01-02T04:21:40.712Z,100831.75
2023-01-02T04:24:16.307Z,100823.84
2023-01-02T04:26:58.111Z,100827.38
2023-01-02T04:29:32.346Z,100809.00
2023-01-02T04:32:09.413Z,100817.72
2023-01-02T04:34:41.065Z,100833.47
2023-01-02T04:40:19.002Z,100833.47
2023-01-02T04:43:04.646Z,100835.22
2023-01-02T04:45:34.469Z,100833.47
2023-01-02T04:48:04.082Z,100819.50
2023-01-02T04:50:38.592Z,100820.34
2023-01-02T04:53:10.587Z,100829.94
2023-01-02T04:58:47.290Z,100821.22
2023-01-02T05:01:21.792Z,100822.06
2023-01-02T05:03:54.619Z,100822.06
2023-01-02T05:06:24.882Z,100813.31
2023-01-02T05:09:01.555Z,100812.44
2023-01-02T05:11:30.830Z,100817.66
2023-01-02T05:14:16.752Z,100808.06
2023-01-02T05:19:34.123Z,100806.28
2023-01-02T05:22:22.291Z,100816.78
2023-01-02T05:27:42.526Z,100815.88
2023-01-02T05:30:15.005Z,100807.16
2023-01-02T05:32:51.093Z,100822.00
2023-01-02T05:35:19.692Z,100817.63
2023-01-02T05:38:04.610Z,100822.84
2023-01-02T05:40:40.634Z,100810.63
2023-01-02T05:43:10.463Z,100808.00
2023-01-02T05:45:42.172Z,100829.84
2023-01-02T05:48:13.083Z,100828.09
2023-01-02T05:50:58.914Z,100825.47
2023-01-02T05:53:27.618Z,100801.84
2023-01-02T05:55:59.711Z,100832.44
2023-01-02T05:58:35.144Z,100815.91
2023-01-02T06:01:33.857Z,100830.69
2023-01-02T06:04:03.114Z,100823.66
2023-01-02T06:06:34.495Z,100822.78
2023-01-02T06:09:03.627Z,100831.50
2023-01-02T06:11:32.894Z,100808.78
2023-01-02T06:14:01.449Z,100819.28
2023-01-02T06:16:31.597Z,100810.50
2023-01-02T06:19:00.466Z,100814.03
2023-01-02T06:21:29.082Z,100822.72
2023-01-02T06:23:59.775Z,100810.47
2023-01-02T06:26:34.513Z,100829.75
2023-01-02T06:29:04.365Z,100833.25
2023-01-02T06:31:34.646Z,100820.16
2023-01-02T06:34:04.840Z,100842.00
2023-01-02T06:36:36.123Z,100817.53
2023-01-02T06:39:04.976Z,100819.22
2023-01-02T06:41:33.942Z,100832.34
2023-01-02T06:44:02.357Z,100828.88
2023-01-02T06:46:30.927Z,100836.72
2023-01-02T06:49:00.869Z,100844.59
2023-01-02T06:51:29.320Z,100840.19
2023-01-02T06:53:58.078Z,100828.84
2023-01-02T06:56:26.729Z,100842.00
2023-01-02T06:58:55.181Z,100845.47
2023-01-02T07:01:24.919Z,100833.25
2023-01-02T07:03:55.736Z,100838.47
2023-01-02T07:06:27.983Z,100825.38
2023-01-02T07:08:56.616Z,100827.13
2023-01-02T07:11:26.552Z,100842.03
2023-01-02T07:13:56.482Z,100857.78
2023-01-02T07:16:25.939Z,100860.41
2023-01-02T07:18:55.156Z,100865.66
2023-01-02T07:21:25.458Z,100877.97
2023-01-02T07:23:54.727Z,100879.72
2023-01-02T07:26:23.409Z,100882.44
2023-01-02T07:28:52.459Z,100914.84
2023-01-02T07:31:22.597Z,100910.50
2023-01-02T07:33:51.491Z,100921.91
2023-01-02T07:36:22.266Z,100941.25
2023-01-02T07:38:54.158Z,100930.78
2023-01-02T07:41:25.334Z,100950.97
2023-01-02T07:43:57.946Z,100977.28
2023-01-02T07:46:27.233Z,100967.66
2023-01-02T07:48:56.389Z,100951.91
2023-01-02T07:51:33.092Z,100980.81
2023-01-02T07:54:03.059Z,100979.09
2023-01-02T07:56:31.476Z,101000.97
2023-01-02T07:59:00.133Z,101023.75
2023-01-02T08:01:28.780Z,101017.56
2023-01-02T08:03:57.404Z,101035.91
2023-01-02T08:06:26.054Z,101049.88
2023-01-02T08:08:54.583Z,101054.22
2023-01-02T08:11:24.765Z,101052.44
2023-01-02T08:13:54.714Z,101065.53
2023-01-02T08:16:25.415Z,101068.13
2023-01-02T08:18:56.007Z,101090.81
2023-01-02T08:21:25.254Z,101097.72
2023-01-02T08:23:53.871Z,101109.91
2023-01-02T08:26:25.646Z,101107.22
2023-01-02T08:28:54.312Z,101118.56
2023-01-02T08:31:23.764Z,101121.91
2023-01-02T08:33:52.689Z,101148.09
2023-01-02T08:36:21.156Z,101156.75
2023-01-02T08:38:49.798Z,101158.41
2023-01-02T08:41:33.277Z,101156.53
2023-01-02T08:44:02.279Z,101180.13
2023-01-02T08:46:37.061Z,101186.22
2023-01-02T08:49:10.911Z,101213.22
2023-01-02T08:51:39.352Z,101214.97
2023-01-02T08:54:11.986Z,101205.25
2023-01-02T08:56:42.807Z,101214.84
2023-01-02T08:59:13.645Z,101220.03
2023-01-02T09:01:43.255Z,101244.56
2023-01-02T09:04:13.302Z,101242.72
2023-01-02T09:06:44.030Z,101261.03
2023-01-02T09:09:14.422Z,101281.09
2023-01-02T09:11:50.437Z,101297.69
2023-01-02T09:14:21.298Z,101287.22
2023-01-02T09:16:52.075Z,101277.44
2023-01-02T09:19:26.425Z,101279.16
2023-01-02T09:21:56.236Z,101290.59
2023-01-02T09:24:41.107Z,101294.94
2023-01-02T09:27:11.676Z,101307.19
2023-01-02T09:29:40.913Z,101298.38
2023-01-02T09:32:10.393Z,101314.97
2023-01-02T09:34:39.782Z,101322.75
2023-01-02T09:37:10.415Z,101351.66
2023-01-02T09:39:39.136Z,101328.81
2023-01-02T09:42:13.345Z,101342.91
2023-01-02T09:44:49.004Z,101345.56
2023-01-02T09:47:22.400Z,101355.19
2023-01-02T09:49:54.202Z,101356.97
2023-01-02T09:52:30.428Z,101349.00
2023-01-02T09:55:13.415Z,101384.13
2023-01-02T09:57:53.929Z,101388.53
2023-01-02T10:00:27.058Z,101389.25
2023-01-02T10:03:08.672Z,101398.84
2023-01-02T10:06:09.181Z,101400.56
2023-01-02T10:08:50.675Z,101397.91
2023-01-02T10:11:47.534Z,101401.34
2023-01-02T10:14:36.055Z,101417.16
2023-01-02T10:17:13.071Z,101407.63
2023-01-02T10:19:48.204Z,101402.50
2023-01-02T10:22:25.622Z,101403.38
2023-01-02T10:25:03.619Z,101407.72
2023-01-02T10:27:39.448Z,101424.38
2023-01-02T10:30:20.544Z,101423.47
2023-01-02T10:32:57.694Z,101413.81
2023-01-02T10:35:38.520Z,101421.84
2023-01-02T10:38:08.510Z,101422.75
2023-01-02T10:40:38.836Z,101412.16
2023-01-02T10:43:07.800Z,101428.00
2023-01-02T10:45:37.470Z,101428.84
2023-01-02T10:48:08.614Z,101437.66
2023-01-02T10:50:43.421Z,101441.16
2023-01-02T10:53:24.789Z,101425.28
2023-01-02T10:55:53.484Z,101437.66
2023-01-02T10:58:25.896Z,101434.88
2023-01-02T11:01:06.929Z,101457.53
2023-01-02T11:03:36.937Z,101461.84
2023-01-02T11:06:25.767Z,101454.88
2023-01-02T11:08:59.785Z,101464.50
2023-01-02T11:11:31.334Z,101470.66
2023-01-02T11:14:11.688Z,101455.81
2023-01-02T11:16:43.726Z,101461.13
2023-01-02T11:19:29.127Z,101449.81
2023-01-02T11:21:58.571Z,101463.13
2023-01-02T11:24:28.703Z,101448.31
2023-01-02T11:26:58.596Z,101454.47
2023-01-02T11:29:32.457Z,101465.88
2023-01-02T11:32:03.470Z,101460.75
2023-01-02T11:34:38.284Z,101459.00
2023-01-02T11:37:16.627Z,101457.22
2023-01-02T11:40:01.170Z,101456.47
2023-01-02T11:42:55.835Z,101473.00
2023-01-02T11:45:24.779Z,101478.16
2023-01-02T11:47:58.651Z,101483.34
2023-01-02T11:50:32.967Z,101477.91
2023-01-02T11:53:06.115Z,101491.81
2023-01-02T11:55:41.043Z,101491.72
2023-01-02T11:58:19.375Z,101502.97
2023-01-02T12:00:53.880Z,101506.44
2023-01-02T12:03:26.851Z,101498.47
2023-01-02T12:06:14.306Z,101516.09
2023-01-02T12:08:53.965Z,101505.59
2023-01-02T12:11:36.023Z,101510.81
2023-01-02T12:14:15.664Z,101523.03
2023-01-02T12:16:53.724Z,101528.41
2023-01-02T12:20:05.617Z,101510.06
2023-01-02T12:23:14.841Z,101533.13
2023-01-02T12:25:58.460Z,101535.00
2023-01-02T12:28:53.732Z,101518.94
2023-01-02T12:31:49.492Z,101526.97
2023-01-02T12:34:36.627Z,101519.16
2023-01-02T12:37:24.600Z,101548.84
2023-01-02T12:40:34.904Z,101552.09
2023-01-02T12:43:59.788Z,101550.97
2023-01-02T12:46:45.507Z,101556.13
2023-01-02T12:49:38.390Z,101550.00
2023-01-02T12:52:18.487Z,101533.22
2023-01-02T12:55:03.585Z,101565.69
2023-01-02T12:57:43.747Z,101565.72
2023-01-02T13:00:36.615Z,101564.94
2023-01-02T13:03:43.241Z,101558.84
2023-01-02T13:06:43.453Z,101551.91
2023-01-02T13:09:16.888Z,101546.59
2023-01-02T13:11:58.033Z,101570.38
2023-01-02T13:14:36.038Z,101568.69
2023-01-02T13:17:21.282Z,101552.78
2023-01-02T13:19:56.130Z,101565.28
2023-01-02T13:22:36.338Z,101550.25
2023-01-02T13:25:06.127Z,101586.34
2023-01-02T13:27:35.565Z,101585.50
2023-01-02T13:30:07.509Z,101580.38
2023-01-02T13:32:36.064Z,101585.69
2023-01-02T13:35:06.574Z,101575.16
2023-01-02T13:37:36.970Z,101580.50
2023-01-02T13:40:07.173Z,101577.13
2023-01-02T13:45:47.520Z,101575.47
2023-01-02T13:48:24.068Z,101560.53
2023-01-02T13:51:02.153Z,101559.69
2023-01-02T13:53:39.113Z,101556.22
2023-01-02T13:56:14.036Z,101561.50
2023-01-02T13:58:52.347Z,101551.09
2023-01-02T14:02:18.269Z,101580.84
2023-01-02T14:04:46.917Z,101582.59
2023-01-02T14:07:22.877Z,101586.19
2023-01-02T14:10:13.286Z,101580.91
2023-01-02T14:12:51.450Z,101599.28
2023-01-02T14:15:25.709Z,101593.94
2023-01-02T14:18:04.920Z,101593.91
2023-01-02T14:20:36.360Z,101622.09
2023-01-02T14:23:08.383Z,101618.56
2023-01-02T14:25:47.510Z,101620.25
2023-01-02T14:28:25.375Z,101633.41
2023-01-02T14:30:54.773Z,101641.28
2023-01-02T14:33:36.573Z,101626.31
2023-01-02T14:36:11.011Z,101644.78
2023-01-02T14:38:43.296Z,101645.63
2023-01-02T14:41:46.458Z,101648.25
2023-01-02T14:44:15.068Z,101639.41
2023-01-02T14:46:44.787Z,101635.88
2023-01-02T14:49:26.065Z,101647.25
2023-01-02T14:52:02.208Z,101652.41
2023-01-02T14:54:35.270Z,101662.97
2023-01-02T14:57:14.680Z,101655.94
2023-01-02T14:59:47.489Z,101653.31
2023-01-02T15:02:19.568Z,101660.22
2023-01-02T15:04:54.486Z,101637.38
2023-01-02T15:07:25.910Z,101655.88
2023-01-02T15:10:00.240Z,101666.28
2023-01-02T15:12:47.872Z,101673.31
2023-01-02T15:15:19.246Z,101676.75
2023-01-02T15:17:49.790Z,101681.97
2023-01-02T15:20:24.551Z,101687.13
2023-01-02T15:22:54.741Z,101677.50
2023-01-02T15:25:37.538Z,101686.19
2023-01-02T15:28:07.792Z,101688.78
2023-01-02T15:30:40.254Z,101685.94
2023-01-02T15:33:30.064Z,101710.50
2023-01-02T15:36:05.189Z,101708.78
2023-01-02T15:38:34.214Z,101714.88
2023-01-02T15:41:03.696Z,101721.00
2023-01-02T15:43:51.741Z,101714.91
2023-01-02T15:46:20.948Z,101715.69
2023-01-02T15:48:50.605Z,101705.94
2023-01-02T15:51:41.604Z,101723.50
2023-01-02T15:54:14.334Z,101719.88
2023-01-02T15:56:43.669Z,101715.47
2023-01-02T15:59:28.957Z,101748.78
2023-01-02T16:01:57.945Z,101753.16
2023-01-02T16:04:29.312Z,101755.78
2023-01-02T16:07:14.873Z,101755.69
2023-01-02T16:09:54.602Z,101760.91
2023-01-02T16:12:24.731Z,101757.25
2023-01-02T16:14:56.977Z,101780.03
2023-01-02T16:17:29.333Z,101778.97
2023-01-02T16:20:00.649Z,101770.03
2023-01-02T16:22:35.823Z,101780.47
2023-01-02T16:25:14.074Z,101797.00
2023-01-02T16:27:54.425Z,101806.59
2023-01-02T16:30:37.808Z,101810.94
2023-01-02T16:33:23.023Z,101821.34
2023-01-02T16:36:00.699Z,101828.44
2023-01-02T16:38:32.405Z,101827.50
2023-01-02T16:41:12.414Z,101818.63
2023-01-02T16:43:48.313Z,101831.88
2023-01-02T16:46:18.054Z,101846.66
2023-01-02T16:48:46.947Z,101848.25
2023-01-02T16:51:17.263Z,101859.66
2023-01-02T16:53:47.343Z,101870.13
2023-01-02T16:56:17.361Z,101860.44
2023-01-02T16:58:45.889Z,101849.75
2023-01-02T17:01:17.989Z,101861.97
2023-01-02T17:03:46.732Z,101862.69
2023-01-02T17:06:18.369Z,101845.03
2023-01-02T17:08:48.534Z,101860.84
2023-01-02T17:11:19.510Z,101872.28
2023-01-02T17:13:48.199Z,101849.34
2023-01-02T17:16:17.161Z,101879.94
2023-01-02T17:18:46.179Z,101864.84
2023-01-02T17:21:14.756Z,101893.72
2023-01-02T17:23:43.880Z,101887.31
2023-01-02T17:26:13.898Z,101904.69
2023-01-02T17:28:42.431Z,101897.44
2023-01-02T17:31:18.790Z,101905.06
2023-01-02T17:33:49.744Z,101903.00
2023-01-02T17:36:18.544Z,101903.41
2023-01-02T17:38:47.061Z,101886.44
2023-01-02T17:41:17.058Z,101915.31
2023-01-02T17:44:02.443Z,101920.28
2023-01-02T17:47:09.248Z,101922.66
2023-01-02T17:49:22.223Z,101919.66
2023-01-02T17:51:51.407Z,101914.13
2023-01-02T17:54:20.546Z,101931.66
2023-01-02T17:56:50.657Z,101915.44
2023-01-02T17:59:20.049Z,101944.34
2023-01-02T18:01:49.424Z,101950.31
2023-01-02T18:04:18.960Z,101953.59
2023-01-02T18:06:47.661Z,101939.31
2023-01-02T18:09:16.339Z,101963.75
2023-01-02T18:11:44.921Z,101967.81
2023-01-02T18:14:21.898Z,101971.19
2023-01-02T18:16:51.697Z,101964.88
2023-01-02T18:19:25.345Z,101974.53
2023-01-02T18:21:54.457Z,101970.81
2023-01-02T18:24:27.602Z,101981.13
2023-01-02T18:27:02.621Z,101965.09
2023-01-02T18:29:32.762Z,101980.81
2023-01-02T18:32:01.327Z,101986.84
2023-01-02T18:34:50.844Z,101992.75
2023-01-02T18:37:24.133Z,101995.22
2023-01-02T18:39:52.829Z,101992.38
2023-01-02T18:42:26.533Z,101998.56
2023-01-02T18:45:00.577Z,101998.56
2023-01-02T18:47:32.172Z,102014.56
2023-01-02T18:50:26.534Z,102019.13
2023-01-02T18:52:54.977Z,102028.00
2023-01-02T18:55:27.730Z,102028.63
2023-01-02T18:58:01.464Z,102036.16
2023-01-02T19:00:35.258Z,102031.34
2023-01-02T19:03:12.355Z,102011.69
2023-01-02T19:05:45.583Z,102040.38
2023-01-02T19:08:23.176Z,102039.31
2023-01-02T19:10:55.441Z,102046.22
2023-01-02T19:13:26.162Z,102023.75
2023-01-02T19:16:00.316Z,102052.91
2023-01-02T19:18:36.025Z,102042.97
2023-01-02T19:21:19.966Z,102068.25
2023-01-02T19:23:54.167Z,102065.13
2023-01-02T19:26:28.928Z,102072.72
2023-01-02T19:29:01.291Z,102090.84
2023-01-02T19:31:43.749Z,102089.72
2023-01-02T19:34:44.665Z,102105.97
2023-01-02T19:37:39.327Z,102097.47
2023-01-02T19:40:19.383Z,102093.94
2023-01-02T19:42:49.519Z,102114.19
2023-01-02T19:45:22.166Z,102110.63
2023-01-02T19:47:53.657Z,102128.00
2023-01-02T19:50:24.893Z,102131.31
2023-01-02T19:52:53.796Z,102124.25
2023-01-02T19:55:22.414Z,102134.78
2023-01-02T19:58:09.233Z,102145.25
2023-01-02T20:00:37.623Z,102139.47
2023-01-02T20:03:07.805Z,102143.13
2023-01-02T20:05:36.977Z,102130.28
2023-01-02T20:08:05.664Z,102137.38
2023-01-02T20:10:34.169Z,102150.59
2023-01-02T20:13:02.594Z,102142.50
2023-01-02T20:15:31.106Z,102155.63
2023-01-02T20:18:03.670Z,102167.50
2023-01-02T20:20:36.691Z,102174.19
2023-01-02T20:23:05.332Z,102175.72
2023-01-02T20:25:34.037Z,102176.25
2023-01-02T20:28:03.540Z,102188.75
2023-01-02T20:30:32.016Z,102196.75
2023-01-02T20:33:01.725Z,102192.41
2023-01-02T20:35:30.252Z,102189.00
2023-01-02T20:38:00.282Z,102208.31
2023-01-02T20:40:28.997Z,102214.41
2023-01-02T20:42:57.555Z,102186.41
2023-01-02T20:45:26.005Z,102207.16
2023-01-02T20:47:54.659Z,102224.75
2023-01-02T20:50:23.398Z,102227.66
2023-01-02T20:52:56.678Z,102215.69
2023-01-02T20:55:27.203Z,102234.22
2023-01-02T20:57:55.880Z,102240.06
2023-01-02T21:00:24.483Z,102239.88
2023-01-02T21:02:53.448Z,102249.38
2023-01-02T21:05:22.212Z,102227.94
2023-01-02T21:07:50.995Z,102247.31
2023-01-02T21:10:19.878Z,102231.13
2023-01-02T21:13:07.376Z,102243.19
2023-01-02T21:15:46.483Z,102224.19
2023-01-02T21:18:18.481Z,102248.88
2023-01-02T21:20:50.296Z,102248.63
2023-01-02T21:23:20.327Z,102254.66
2023-01-02T21:25:49.606Z,102253.56
2023-01-02T21:28:22.184Z,102256.03
2023-01-02T21:30:54.044Z,102254.91
2023-01-02T21:33:25.306Z,102244.03
2023-01-02T21:35:58.050Z,102254.63
2023-01-02T21:38:28.297Z,102270.28
2023-01-02T21:41:19.733Z,102265.16
2023-01-02T21:43:50.559Z,102260.13
2023-01-02T21:46:19.272Z,102276.97
2023-01-02T21:48:48.102Z,102263.13
2023-01-02T21:51:16.976Z,102293.50
2023-01-02T21:53:45.981Z,102295.59
2023-01-02T21:56:14.941Z,102281.63
2023-01-02T21:58:43.809Z,102296.19
2023-01-02T22:01:13.822Z,102295.31
2023-01-02T22:03:42.715Z,102313.66
2023-01-02T22:06:11.380Z,102319.94
2023-01-02T22:08:40.007Z,102317.34
2023-01-02T22:11:25.972Z,102323.50
2023-01-02T22:13:54.542Z,102325.41
2023-01-02T22:16:24.667Z,102324.34
2023-01-02T22:18:53.055Z,102342.97
2023-01-02T22:21:21.745Z,102343.00
2023-01-02T22:23:50.377Z,102351.97
2023-01-02T22:26:19.543Z,102322.69
2023-01-02T22:28:48.022Z,102356.50
2023-01-02T22:31:17.018Z,102362.59
2023-01-02T22:33:47.841Z,102356.50
2023-01-02T22:36:16.427Z,102357.94
2023-01-02T22:39:09.586Z,102353.38
2023-01-02T22:41:36.124Z,102344.75
2023-01-02T22:44:07.273Z,102339.19
2023-01-02T22:46:40.703Z,102360.22
2023-01-02T22:49:16.066Z,102365.69
2023-01-02T22:52:07.873Z,102368.84
2023-01-02T22:54:33.918Z,102360.88
2023-01-02T22:57:02.491Z,102351.81
2023-01-02T22:59:31.078Z,102369.53
2023-01-02T23:01:59.987Z,102365.94
2023-01-02T23:04:29.913Z,102377.44
2023-01-02T23:07:23.244Z,102372.34
2023-01-02T23:09:47.379Z,102364.78
2023-01-02T23:12:16.243Z,102387.56
2023-01-02T23:14:45.149Z,102384.38
2023-01-02T23:17:31.696Z,102399.22
2023-01-02T23:20:01.834Z,102396.09
2023-01-02T23:22:30.529Z,102408.22
2023-01-02T23:25:00.839Z,102409.78
2023-01-02T23:27:29.330Z,102408.63
2023-01-02T23:29:58.009Z,102415.47
2023-01-02T23:32:26.666Z,102426.59
2023-01-02T23:34:55.075Z,102422.78
2023-01-02T23:37:25.024Z,102415.69
2023-01-02T23:39:53.745Z,102431.28
2023-01-02T23:42:22.421Z,102431.94
2023-01-02T23:44:50.964Z,102425.59
2023-01-02T23:47:19.661Z,102434.09
2023-01-02T23:49:48.284Z,102433.00
2023-01-02T23:52:16.784Z,102445.00
2023-01-02T23:54:46.798Z,102444.84
2023-01-02T23:57:15.234Z,102450.69
2023-01-02T23:59:43.839Z,102447.94
